Time;durP1;ratioP1;P1;durP2;ratioP2;P2;SDS_P1;SDS_P2;PMS_P1;PMS_P2;Temp;Humidity;BMP_temperature;BMP_pressure;BME280_temperature;BME280_humidity;BME280_pressure;Samples;Min_cycle;Max_cycle;Signal;HPM_P1;HPM_P2
2024/01/21 00:01:15;;;;;;;91.22;85.28;;;0.80;99.90;;;;;;4998845;28;20049;-78
2024/01/21 00:03:41;;;;;;;154.35;144.50;;;0.10;99.90;;;;;;4997526;28;20138;-79
2024/01/21 00:06:07;;;;;;;124.03;116.05;;;0.20;99.90;;;;;;4995891;28;20393;-78
2024/01/21 00:08:33;;;;;;;129.98;121.68;;;0.90;99.90;;;;;;4990096;28;20053;-78
2024/01/21 00:10:58;;;;;;;95.20;89.10;;;1.00;99.90;;;;;;5039932;28;20050;-79
2024/01/21 00:13:24;;;;;;;99.43;93.25;;;1.50;99.90;;;;;;4989657;28;20049;-78
2024/01/21 00:15:50;;;;;;;73.00;68.30;;;0.30;99.90;;;;;;4999502;28;20377;-79
2024/01/21 00:18:16;;;;;;;80.38;75.25;;;1.50;99.90;;;;;;5001503;28;20517;-78
2024/01/21 00:20:42;;;;;;;108.97;101.22;;;1.00;99.90;;;;;;4986704;28;20108;-79
2024/01/21 00:23:08;;;;;;;79.45;73.80;;;1.10;99.90;;;;;;4991045;28;20069;-78
2024/01/21 00:25:34;;;;;;;45.08;41.58;;;0.20;99.90;;;;;;5006780;28;20054;-79
2024/01/21 00:28:01;;;;;;;35.72;32.50;;;0.30;99.90;;;;;;5005693;28;20049;-79
2024/01/21 00:30:27;;;;;;;61.13;56.75;;;1.00;99.90;;;;;;5006065;28;20046;-79
2024/01/21 00:32:53;;;;;;;28.60;26.27;;;0.30;99.90;;;;;;5005689;28;20523;-79
2024/01/21 00:35:18;;;;;;;36.08;33.28;;;0.90;99.90;;;;;;5001512;28;20046;-79
2024/01/21 00:37:44;;;;;;;39.47;36.38;;;1.20;99.90;;;;;;5004162;28;20065;-78
2024/01/21 00:40:10;;;;;;;31.63;28.88;;;0.30;99.90;;;;;;4997817;28;20045;-79
2024/01/21 00:42:36;;;;;;;31.10;28.50;;;0.20;99.90;;;;;;4987652;28;20129;-79
2024/01/21 00:45:03;;;;;;;28.00;25.40;;;1.10;99.90;;;;;;5003302;28;20054;-79
2024/01/21 00:47:29;;;;;;;33.05;30.38;;;0.20;99.90;;;;;;5019736;27;20104;-78
2024/01/21 00:49:55;;;;;;;41.38;38.08;;;0.60;99.90;;;;;;5002469;28;20050;-79
2024/01/21 00:52:20;;;;;;;31.98;29.38;;;1.00;99.90;;;;;;4997519;28;20363;-79
2024/01/21 00:54:46;;;;;;;36.33;33.33;;;0.80;99.90;;;;;;5002594;28;20466;-78
2024/01/21 00:57:12;;;;;;;30.08;27.50;;;1.00;99.90;;;;;;5005262;28;20516;-78
2024/01/21 00:59:38;;;;;;;35.25;32.25;;;0.00;99.90;;;;;;4994026;28;20034;-79
2024/01/21 01:02:03;;;;;;;32.97;30.17;;;0.80;99.90;;;;;;4990770;28;20058;-78
2024/01/21 01:04:29;;;;;;;30.85;28.17;;;0.40;99.90;;;;;;4993395;28;20052;-79
2024/01/21 01:06:55;;;;;;;38.92;35.80;;;0.80;99.90;;;;;;5007153;28;20501;-78
2024/01/21 01:09:21;;;;;;;41.67;38.38;;;0.70;99.90;;;;;;5004837;28;20073;-78
2024/01/21 01:11:46;;;;;;;39.35;36.05;;;0.80;99.90;;;;;;5007051;28;20054;-79
2024/01/21 01:14:12;;;;;;;37.30;33.53;;;0.70;99.90;;;;;;4974575;28;20416;-78
2024/01/21 01:16:39;;;;;;;34.75;31.83;;;1.10;99.90;;;;;;4992732;28;20049;-79
2024/01/21 01:19:06;;;;;;;53.55;49.63;;;0.40;99.90;;;;;;4985554;28;20089;-78
2024/01/21 01:21:31;;;;;;;41.38;38.03;;;0.80;99.90;;;;;;5001806;28;20041;-79
2024/01/21 01:23:57;;;;;;;95.22;88.88;;;0.90;99.90;;;;;;4999968;28;20049;-78
2024/01/21 01:26:23;;;;;;;36.03;32.90;;;0.70;99.90;;;;;;5006162;28;20058;-78
2024/01/21 01:28:50;;;;;;;45.38;41.75;;;0.50;99.90;;;;;;4999575;28;20493;-78
2024/01/21 01:31:17;;;;;;;52.58;48.88;;;1.00;99.90;;;;;;4993134;28;20464;-78
2024/01/21 01:33:44;;;;;;;52.13;48.38;;;0.30;99.90;;;;;;4982304;28;20133;-78
2024/01/21 01:36:11;;;;;;;49.55;45.97;;;-0.10;99.90;;;;;;5001413;28;20434;-79
2024/01/21 01:38:37;;;;;;;58.17;53.85;;;1.10;99.90;;;;;;4996499;28;20037;-78
2024/01/21 01:41:03;;;;;;;110.88;103.68;;;1.10;99.90;;;;;;5000656;28;20099;-78
2024/01/21 01:43:29;;;;;;;145.73;135.93;;;0.00;99.90;;;;;;4999752;28;20416;-79
2024/01/21 01:45:56;;;;;;;101.45;94.75;;;0.30;99.90;;;;;;4999695;28;20050;-78
2024/01/21 01:48:22;;;;;;;129.93;121.22;;;1.10;99.90;;;;;;4994680;28;20497;-78
2024/01/21 01:50:49;;;;;;;154.57;143.93;;;1.20;99.90;;;;;;4998894;28;20045;-78
2024/01/21 01:53:16;;;;;;;100.50;93.85;;;1.30;99.90;;;;;;5025951;28;20046;-78
2024/01/21 01:55:43;;;;;;;83.32;77.88;;;0.10;99.90;;;;;;5000761;28;20788;-78
2024/01/21 01:58:11;;;;;;;88.15;82.47;;;1.40;99.90;;;;;;4996255;28;20397;-78
2024/01/21 02:00:37;;;;;;;134.15;125.38;;;0.80;99.90;;;;;;4985302;28;20134;-78
2024/01/21 02:03:03;;;;;;;77.60;72.53;;;1.40;99.90;;;;;;5008503;28;20054;-78
2024/01/21 02:05:29;;;;;;;120.22;112.32;;;0.20;99.90;;;;;;4996121;28;20062;-78
2024/01/21 02:07:55;;;;;;;108.38;101.05;;;0.80;99.90;;;;;;5003820;28;20057;-78
2024/01/21 02:10:21;;;;;;;82.47;76.97;;;0.80;99.90;;;;;;5005360;28;20075;-78
2024/01/21 02:12:46;;;;;;;82.13;76.82;;;0.80;99.90;;;;;;5003075;28;20030;-78
2024/01/21 02:15:12;;;;;;;65.95;61.47;;;1.10;99.90;;;;;;5003842;28;20509;-78
2024/01/21 02:17:39;;;;;;;69.70;64.90;;;0.20;99.90;;;;;;5005268;28;20056;-78
2024/01/21 02:20:07;;;;;;;36.45;33.47;;;0.70;99.90;;;;;;4987746;28;20042;-78
2024/01/21 02:22:37;;;;;;;32.28;29.42;;;0.20;99.90;;;;;;4985083;28;20058;-78
2024/01/21 02:25:02;;;;;;;72.53;67.47;;;1.50;99.90;;;;;;4988270;28;20077;-78
2024/01/21 02:27:28;;;;;;;73.95;69.03;;;0.20;99.90;;;;;;4993093;28;20549;-78
2024/01/21 02:29:54;;;;;;;161.45;151.05;;;1.10;99.90;;;;;;5017314;28;20046;-78
2024/01/21 02:32:19;;;;;;;78.85;73.63;;;0.40;99.90;;;;;;5004295;28;20129;-78
2024/01/21 02:34:45;;;;;;;89.68;83.82;;;1.00;99.90;;;;;;4992877;28;20126;-78
2024/01/21 02:37:11;;;;;;;150.45;140.80;;;0.90;99.90;;;;;;4984496;28;20098;-78
2024/01/21 02:39:37;;;;;;;153.73;143.43;;;0.30;99.90;;;;;;4993541;28;20405;-79
2024/01/21 02:42:03;;;;;;;107.78;100.85;;;0.90;99.90;;;;;;5002760;28;20057;-79
2024/01/21 02:44:28;;;;;;;159.88;149.05;;;0.20;99.90;;;;;;5000072;28;20077;-79
2024/01/21 02:46:54;;;;;;;88.82;83.00;;;0.60;99.90;;;;;;4984370;28;20085;-79
2024/01/21 02:49:23;;;;;;;122.97;114.85;;;1.10;99.90;;;;;;4985174;28;20141;-79
2024/01/21 02:51:49;;;;;;;73.28;68.50;;;0.40;99.90;;;;;;4985245;28;20038;-79
2024/01/21 02:54:15;;;;;;;108.78;101.93;;;0.80;99.90;;;;;;4983410;28;20435;-79
2024/01/21 02:56:41;;;;;;;78.68;73.72;;;0.20;99.90;;;;;;4978100;28;20061;-79
2024/01/21 02:59:06;;;;;;;112.85;105.50;;;0.70;99.90;;;;;;4992255;28;20050;-79
2024/01/21 03:01:34;;;;;;;204.93;191.25;;;0.70;99.90;;;;;;4990088;28;20160;-79
2024/01/21 03:03:59;;;;;;;91.15;85.43;;;0.20;99.90;;;;;;5003992;28;20091;-79
2024/01/21 03:06:25;;;;;;;100.90;94.68;;;0.70;99.90;;;;;;5003056;28;20042;-79
2024/01/21 03:08:51;;;;;;;205.40;191.10;;;0.60;99.90;;;;;;5004411;28;20034;-79
2024/01/21 03:11:16;;;;;;;70.43;65.93;;;0.90;99.90;;;;;;5035425;28;20425;-79
2024/01/21 03:13:42;;;;;;;58.22;54.50;;;1.40;99.90;;;;;;5002980;28;20121;-79
2024/01/21 03:16:08;;;;;;;117.00;109.53;;;1.60;99.90;;;;;;5002312;28;20045;-79
2024/01/21 03:18:38;;;;;;;190.65;178.02;;;0.50;99.90;;;;;;5002995;28;20154;-79
2024/01/21 03:21:05;;;;;;;120.32;112.70;;;1.60;99.90;;;;;;5002949;28;20042;-79
2024/01/21 03:23:31;;;;;;;153.25;143.30;;;1.10;99.90;;;;;;5003480;28;20102;-79
2024/01/21 03:25:56;;;;;;;80.28;75.13;;;1.10;99.90;;;;;;5005095;28;20153;-79
2024/01/21 03:28:24;;;;;;;55.53;51.85;;;1.20;99.90;;;;;;5003629;28;20681;-79
2024/01/21 03:30:49;;;;;;;92.28;86.40;;;0.40;99.90;;;;;;5001901;28;20409;-79
2024/01/21 03:33:15;;;;;;;175.45;164.00;;;1.00;99.90;;;;;;5002652;28;20050;-79
2024/01/21 03:35:41;;;;;;;48.30;45.10;;;0.50;99.90;;;;;;4991671;28;20058;-79
2024/01/21 03:38:06;;;;;;;85.70;80.40;;;0.50;99.90;;;;;;4995520;28;20424;-79
2024/01/21 03:40:32;;;;;;;49.42;46.13;;;1.70;99.90;;;;;;5003514;28;20054;-79
2024/01/21 03:42:58;;;;;;;32.28;29.95;;;0.50;99.90;;;;;;5003377;28;20046;-79
2024/01/21 03:45:24;;;;;;;47.35;44.17;;;1.30;99.90;;;;;;4984116;28;20429;-79
2024/01/21 03:47:49;;;;;;;39.40;36.80;;;0.60;99.90;;;;;;4999247;28;20366;-79
2024/01/21 03:50:18;;;;;;;72.32;67.70;;;1.00;99.90;;;;;;4993771;28;20042;-79
2024/01/21 03:52:44;;;;;;;42.30;39.50;;;1.10;99.90;;;;;;4982687;28;20043;-79
2024/01/21 03:55:10;;;;;;;62.25;58.45;;;0.40;99.90;;;;;;4983118;28;20046;-79
2024/01/21 03:57:36;;;;;;;206.20;192.20;;;0.50;99.90;;;;;;4983473;28;20057;-79
2024/01/21 04:00:03;;;;;;;52.17;48.72;;;0.40;99.90;;;;;;4978961;28;20038;-79
2024/01/21 04:02:30;;;;;;;45.58;42.58;;;0.40;99.90;;;;;;5002481;28;20137;-80
2024/01/21 04:04:55;;;;;;;23.98;22.10;;;1.10;99.90;;;;;;4987281;28;20139;-79
2024/01/21 04:07:21;;;;;;;26.08;24.08;;;0.90;99.90;;;;;;4984429;28;20078;-79
2024/01/21 04:09:47;;;;;;;65.25;61.25;;;0.80;99.90;;;;;;4984420;28;20286;-79
2024/01/21 04:12:13;;;;;;;95.03;88.78;;;1.10;99.90;;;;;;4982783;28;20486;-79
2024/01/21 04:14:39;;;;;;;34.67;32.33;;;1.10;99.90;;;;;;4983531;28;20050;-79
2024/01/21 04:17:05;;;;;;;29.88;27.88;;;0.40;99.90;;;;;;4984997;28;20089;-80
2024/01/21 04:19:30;;;;;;;25.05;23.30;;;1.20;99.90;;;;;;4982873;28;20096;-79
2024/01/21 04:21:58;;;;;;;29.17;27.10;;;1.40;99.90;;;;;;4988374;28;20038;-79
2024/01/21 04:24:24;;;;;;;39.78;37.20;;;0.40;99.90;;;;;;5001399;28;20073;-79
2024/01/21 04:26:50;;;;;;;41.70;38.78;;;1.60;99.90;;;;;;5003162;28;20154;-79
2024/01/21 04:29:15;;;;;;;43.17;40.47;;;1.20;99.90;;;;;;4997607;28;20108;-80
2024/01/21 04:31:43;;;;;;;24.90;23.20;;;0.60;99.90;;;;;;4983560;28;20052;-79
2024/01/21 04:34:09;;;;;;;44.08;41.33;;;1.00;99.90;;;;;;4982499;28;20054;-79
2024/01/21 04:36:35;;;;;;;38.55;36.00;;;0.30;99.90;;;;;;5017545;28;20057;-79
2024/01/21 04:39:01;;;;;;;75.47;70.72;;;1.50;99.90;;;;;;4988471;28;20045;-79
2024/01/21 04:41:27;;;;;;;67.78;63.58;;;1.20;99.90;;;;;;4990639;28;20195;-79
2024/01/21 04:43:52;;;;;;;32.83;30.48;;;1.00;99.90;;;;;;4983511;28;20085;-79
2024/01/21 04:46:18;;;;;;;58.92;55.40;;;1.80;99.90;;;;;;4997493;28;20049;-79
2024/01/21 04:48:44;;;;;;;33.60;31.45;;;1.60;99.90;;;;;;5001524;28;20095;-79
2024/01/21 04:51:10;;;;;;;69.65;65.20;;;1.50;99.90;;;;;;5021975;28;20508;-79
2024/01/21 04:53:38;;;;;;;40.80;38.28;;;1.20;99.90;;;;;;5002085;28;20119;-79
2024/01/21 04:56:04;;;;;;;50.15;47.10;;;1.00;99.90;;;;;;5006772;28;20052;-79
2024/01/21 04:58:29;;;;;;;44.22;41.55;;;0.70;99.90;;;;;;4997699;28;20054;-79
2024/01/21 05:00:55;;;;;;;46.22;43.35;;;1.30;99.90;;;;;;4999371;28;20102;-79
2024/01/21 05:03:21;;;;;;;40.30;37.78;;;2.00;99.90;;;;;;5006347;28;20085;-79
2024/01/21 05:05:48;;;;;;;24.33;22.60;;;0.90;99.90;;;;;;4996959;28;20122;-79
2024/01/21 05:08:13;;;;;;;36.90;34.50;;;1.50;99.90;;;;;;4986487;28;20077;-79
2024/01/21 05:10:39;;;;;;;35.78;33.58;;;0.70;99.90;;;;;;4987149;28;20447;-79
2024/01/21 05:13:05;;;;;;;21.23;19.80;;;2.00;99.90;;;;;;4987021;28;20065;-79
2024/01/21 05:15:30;;;;;;;24.23;22.63;;;1.30;99.90;;;;;;4987033;28;20123;-79
2024/01/21 05:17:56;;;;;;;53.33;49.97;;;1.90;99.90;;;;;;4985837;28;20482;-79
2024/01/21 05:20:23;;;;;;;29.55;27.58;;;1.50;99.90;;;;;;4986419;28;20046;-79
2024/01/21 05:22:50;;;;;;;34.10;31.95;;;1.10;99.90;;;;;;4985423;28;20049;-79
2024/01/21 05:25:17;;;;;;;60.53;56.28;;;1.50;99.90;;;;;;4985259;28;20047;-79
2024/01/21 05:27:43;;;;;;;32.13;30.00;;;0.80;99.90;;;;;;5000331;28;20050;-79
2024/01/21 05:30:11;;;;;;;39.22;36.83;;;0.80;99.90;;;;;;4994922;28;20046;-80
2024/01/21 05:32:38;;;;;;;41.72;38.95;;;0.80;99.90;;;;;;4989450;28;20046;-79
2024/01/21 05:35:04;;;;;;;34.30;32.08;;;0.80;99.90;;;;;;4993154;28;20076;-79
2024/01/21 05:37:30;;;;;;;38.47;35.83;;;0.80;99.90;;;;;;5000497;28;20091;-79
2024/01/21 05:39:56;;;;;;;36.75;34.45;;;1.40;99.90;;;;;;5004222;28;20454;-79
2024/01/21 05:42:21;;;;;;;37.72;35.40;;;1.60;99.90;;;;;;5004891;28;20054;-79
2024/01/21 05:44:47;;;;;;;58.83;55.25;;;1.50;99.90;;;;;;5037486;28;20484;-79
2024/01/21 05:47:13;;;;;;;32.40;30.27;;;0.80;99.90;;;;;;5006081;28;20061;-79
2024/01/21 05:49:39;;;;;;;40.90;38.28;;;0.80;99.90;;;;;;4990845;28;20127;-79
2024/01/21 05:52:05;;;;;;;45.92;42.55;;;0.80;99.90;;;;;;4993415;28;20153;-79
2024/01/21 05:54:30;;;;;;;36.70;34.28;;;1.60;99.90;;;;;;5021923;28;20197;-79
2024/01/21 05:56:56;;;;;;;54.97;51.67;;;2.00;99.90;;;;;;4995610;28;20038;-79
2024/01/21 05:59:22;;;;;;;150.27;140.13;;;0.80;99.90;;;;;;5003845;28;20654;-79
2024/01/21 06:01:49;;;;;;;68.47;64.25;;;1.30;99.90;;;;;;4987347;28;20103;-79
2024/01/21 06:04:14;;;;;;;52.50;49.28;;;1.30;99.90;;;;;;4987230;28;20111;-79
2024/01/21 06:06:40;;;;;;;131.90;122.68;;;1.20;99.90;;;;;;5001793;28;20421;-79
2024/01/21 06:09:06;;;;;;;44.72;41.50;;;1.50;99.90;;;;;;5002744;28;20030;-79
2024/01/21 06:11:32;;;;;;;76.40;71.18;;;1.60;99.90;;;;;;4984217;28;20432;-80
2024/01/21 06:13:57;;;;;;;57.13;53.13;;;2.20;99.90;;;;;;5018835;28;20050;-79
2024/01/21 06:16:23;;;;;;;58.72;54.45;;;1.90;99.90;;;;;;4985018;28;20054;-79
2024/01/21 06:18:49;;;;;;;49.10;45.78;;;1.70;99.90;;;;;;4986277;28;20046;-79
2024/01/21 06:21:17;;;;;;;54.28;50.75;;;1.20;99.90;;;;;;4994707;28;20199;-79
2024/01/21 06:23:44;;;;;;;37.22;34.83;;;1.20;99.90;;;;;;4990104;28;20501;-79
2024/01/21 06:26:17;;;;;;;42.00;39.00;;;2.20;99.90;;;;;;5003605;28;20064;-79
2024/01/21 06:28:43;;;;;;;86.95;81.30;;;1.80;99.90;;;;;;5003450;28;20532;-79
2024/01/21 06:31:09;;;;;;;71.88;67.05;;;1.80;99.90;;;;;;5004002;28;20050;-79
2024/01/21 06:33:35;;;;;;;63.33;58.97;;;1.60;99.90;;;;;;5002974;28;20038;-79
2024/01/21 06:36:00;;;;;;;75.70;71.03;;;1.30;99.90;;;;;;5005440;28;20172;-79
2024/01/21 06:38:26;;;;;;;47.47;44.20;;;1.20;99.90;;;;;;4985115;28;20068;-79
2024/01/21 06:40:52;;;;;;;103.05;96.00;;;1.80;99.90;;;;;;5003228;28;20113;-79
2024/01/21 06:43:18;;;;;;;32.20;29.88;;;1.70;99.90;;;;;;5002408;28;20049;-79
2024/01/21 06:45:44;;;;;;;41.70;38.90;;;1.80;99.90;;;;;;5003348;28;20049;-79
2024/01/21 06:48:10;;;;;;;72.82;68.13;;;2.20;99.90;;;;;;5001937;28;20152;-79
2024/01/21 06:50:35;;;;;;;80.72;75.20;;;1.20;99.90;;;;;;5005567;28;20049;-79
2024/01/21 06:53:01;;;;;;;88.10;82.15;;;1.20;99.90;;;;;;4988453;28;20056;-79
2024/01/21 06:55:27;;;;;;;70.40;65.43;;;1.30;99.90;;;;;;4985371;28;20131;-79
2024/01/21 06:57:52;;;;;;;48.17;44.95;;;1.30;99.90;;;;;;4984791;28;20512;-79
2024/01/21 07:00:19;;;;;;;31.98;29.67;;;2.20;99.90;;;;;;4986313;28;20041;-79
2024/01/21 07:02:44;;;;;;;33.78;31.38;;;1.20;99.90;;;;;;4998957;28;20056;-79
2024/01/21 07:05:10;;;;;;;52.33;48.80;;;1.40;99.90;;;;;;5034086;28;20132;-79
2024/01/21 07:07:36;;;;;;;71.53;66.53;;;1.20;99.90;;;;;;4999518;28;20485;-79
2024/01/21 07:10:02;;;;;;;36.45;34.05;;;1.10;99.90;;;;;;4984213;28;20136;-79
2024/01/21 07:12:27;;;;;;;46.22;43.22;;;1.10;99.90;;;;;;4984531;28;20478;-79
2024/01/21 07:14:53;;;;;;;44.78;41.65;;;1.50;99.90;;;;;;4984186;28;20057;-79
2024/01/21 07:17:19;;;;;;;52.78;48.92;;;1.10;99.90;;;;;;4992275;28;20085;-79
2024/01/21 07:19:44;;;;;;;53.22;49.33;;;1.90;99.90;;;;;;5023312;28;20456;-79
2024/01/21 07:22:10;;;;;;;65.72;61.28;;;1.20;99.90;;;;;;4989752;28;20042;-79
2024/01/21 07:24:36;;;;;;;55.38;51.63;;;1.20;99.90;;;;;;5024788;28;20450;-79
2024/01/21 07:27:03;;;;;;;51.88;48.58;;;1.20;99.90;;;;;;4996627;28;20126;-79
2024/01/21 07:29:28;;;;;;;79.78;74.38;;;1.20;99.90;;;;;;4996828;28;20755;-79
2024/01/21 07:31:54;;;;;;;39.75;36.85;;;1.80;99.90;;;;;;5062975;28;20061;-79
2024/01/21 07:34:20;;;;;;;35.83;33.10;;;1.90;99.90;;;;;;5022873;28;20514;-80
2024/01/21 07:36:45;;;;;;;50.70;46.92;;;1.70;99.90;;;;;;4996356;28;20053;-79
2024/01/21 07:39:11;;;;;;;32.55;29.95;;;1.90;99.90;;;;;;4993409;28;20074;-79
2024/01/21 07:41:37;;;;;;;80.38;75.13;;;1.10;99.90;;;;;;4990647;28;20050;-79
2024/01/21 07:44:03;;;;;;;66.80;62.40;;;2.00;99.90;;;;;;4986884;28;21045;-79
2024/01/21 07:46:29;;;;;;;45.50;42.38;;;1.10;99.90;;;;;;4972691;28;20059;-81
2024/01/21 07:48:55;;;;;;;57.10;53.40;;;2.00;99.90;;;;;;4981598;28;20062;-81
2024/01/21 07:51:21;;;;;;;45.15;41.90;;;1.10;99.90;;;;;;4998005;28;20073;-81
2024/01/21 07:53:47;;;;;;;72.70;68.05;;;1.60;99.90;;;;;;5002141;28;20045;-80
2024/01/21 07:56:13;;;;;;;65.28;60.97;;;1.10;99.90;;;;;;5003232;28;20058;-80
2024/01/21 07:58:39;;;;;;;108.60;101.18;;;1.60;99.90;;;;;;4994353;28;20142;-80
2024/01/21 08:01:11;;;;;;;53.40;49.75;;;1.10;99.90;;;;;;4996376;28;20049;-81
2024/01/21 08:03:37;;;;;;;43.43;40.20;;;1.30;99.90;;;;;;4972231;28;20050;-79
2024/01/21 08:06:05;;;;;;;42.35;39.25;;;1.10;99.90;;;;;;4964602;28;20054;-81
2024/01/21 08:08:31;;;;;;;81.15;75.70;;;1.10;99.90;;;;;;4987931;28;20058;-79
2024/01/21 08:10:57;;;;;;;70.15;65.55;;;1.90;99.90;;;;;;5012755;28;20057;-80
2024/01/21 08:13:23;;;;;;;27.73;25.60;;;1.70;99.90;;;;;;4994141;28;20123;-80
2024/01/21 08:15:48;;;;;;;42.65;39.72;;;1.50;99.90;;;;;;4995880;28;20035;-80
2024/01/21 08:18:18;;;;;;;69.25;64.85;;;1.10;99.90;;;;;;4983354;28;20050;-79
2024/01/21 08:20:44;;;;;;;41.08;38.13;;;1.80;99.90;;;;;;4999427;28;20042;-81
2024/01/21 08:23:10;;;;;;;62.53;57.83;;;2.10;99.90;;;;;;5000007;28;20611;-80
2024/01/21 08:25:35;;;;;;;57.83;54.00;;;1.20;99.90;;;;;;5018068;28;20047;-80
2024/01/21 08:28:01;;;;;;;46.78;43.45;;;1.20;99.90;;;;;;4998181;28;20114;-80
2024/01/21 08:30:27;;;;;;;65.68;61.38;;;1.20;99.90;;;;;;4988424;28;20431;-80
2024/01/21 08:32:53;;;;;;;43.60;40.63;;;1.60;99.90;;;;;;5004604;28;20080;-80
2024/01/21 08:35:20;;;;;;;47.35;44.00;;;1.30;99.90;;;;;;4986420;28;20034;-80
2024/01/21 08:37:47;;;;;;;35.03;32.45;;;1.30;99.90;;;;;;4973716;28;20047;-80
2024/01/21 08:40:13;;;;;;;49.70;46.35;;;1.20;99.90;;;;;;4985096;28;20058;-79
2024/01/21 08:42:39;;;;;;;65.65;61.17;;;1.30;99.90;;;;;;4990346;28;20056;-80
2024/01/21 08:45:06;;;;;;;86.68;80.70;;;1.30;99.90;;;;;;4988092;28;20068;-81
2024/01/21 08:47:31;;;;;;;25.67;23.67;;;1.30;99.90;;;;;;5014681;28;20507;-80
2024/01/21 08:49:58;;;;;;;42.53;39.25;;;1.30;99.90;;;;;;4981485;28;20080;-80
2024/01/21 08:52:23;;;;;;;74.03;69.25;;;1.50;99.90;;;;;;4982007;28;20051;-80
2024/01/21 08:54:49;;;;;;;46.08;42.88;;;1.60;99.90;;;;;;5022106;28;20473;-80
2024/01/21 08:57:15;;;;;;;43.53;40.33;;;1.60;99.90;;;;;;4989177;28;20043;-80
2024/01/21 08:59:41;;;;;;;26.10;24.13;;;1.30;99.90;;;;;;4980979;28;20045;-80
2024/01/21 09:02:07;;;;;;;59.47;55.42;;;2.20;99.90;;;;;;4979478;28;20410;-80
2024/01/21 09:04:32;;;;;;;42.78;39.85;;;1.40;99.90;;;;;;5000998;28;20057;-79
2024/01/21 09:06:58;;;;;;;70.93;66.25;;;1.50;99.90;;;;;;4989393;28;20042;-80
2024/01/21 09:09:24;;;;;;;37.63;35.03;;;2.20;99.90;;;;;;4985990;28;20042;-80
2024/01/21 09:11:51;;;;;;;63.53;59.28;;;1.50;99.90;;;;;;4994918;28;20058;-81
2024/01/21 09:14:18;;;;;;;47.42;44.25;;;1.50;99.90;;;;;;4973947;28;20039;-80
2024/01/21 09:16:44;;;;;;;41.95;39.00;;;2.60;99.90;;;;;;4981955;28;20051;-80
2024/01/21 09:19:10;;;;;;;58.55;54.47;;;1.70;99.90;;;;;;4971825;28;20063;-79
2024/01/21 09:21:36;;;;;;;41.55;38.65;;;2.30;99.90;;;;;;4972998;28;20050;-80
2024/01/21 09:24:04;;;;;;;43.88;40.75;;;2.30;99.90;;;;;;4999822;28;20661;-80
2024/01/21 09:26:31;;;;;;;34.78;32.35;;;1.60;99.90;;;;;;4993771;28;20505;-79
2024/01/21 09:28:57;;;;;;;44.15;40.92;;;1.70;99.90;;;;;;4982611;28;20497;-79
2024/01/21 09:31:22;;;;;;;61.28;56.97;;;2.50;99.90;;;;;;4978661;28;20073;-81
2024/01/21 09:33:49;;;;;;;42.72;39.78;;;1.80;99.90;;;;;;4973188;28;20118;-81
2024/01/21 09:36:15;;;;;;;30.38;28.15;;;1.80;99.90;;;;;;4990236;28;20054;-80
2024/01/21 09:38:41;;;;;;;39.17;36.33;;;1.80;99.90;;;;;;4988485;28;20046;-80
2024/01/21 09:41:38;;;;;;;38.92;36.03;;;1.90;99.90;;;;;;5005083;28;20054;-80
2024/01/21 09:44:04;;;;;;;41.83;39.00;;;1.90;99.90;;;;;;5005626;28;20050;-80
2024/01/21 09:46:30;;;;;;;42.67;39.88;;;1.90;99.90;;;;;;5004520;28;20516;-80
2024/01/21 09:48:59;;;;;;;33.15;30.77;;;1.90;99.90;;;;;;5003507;28;20120;-79
2024/01/21 09:51:24;;;;;;;53.33;49.67;;;1.90;99.90;;;;;;4985033;28;20126;-81
2024/01/21 09:53:50;;;;;;;79.15;73.80;;;2.00;99.90;;;;;;4994983;28;20115;-79
2024/01/21 09:56:17;;;;;;;94.13;87.55;;;2.50;99.90;;;;;;5003244;28;20451;-80
2024/01/21 09:58:48;;;;;;;55.40;51.60;;;2.10;99.90;;;;;;4997270;28;20046;-80
2024/01/21 10:01:15;;;;;;;66.47;62.22;;;2.60;99.90;;;;;;4987031;28;20107;-80
2024/01/21 10:03:41;;;;;;;56.85;53.00;;;2.10;99.90;;;;;;4981868;28;20078;-80
2024/01/21 10:06:07;;;;;;;140.57;130.10;;;2.20;99.90;;;;;;4987350;28;20062;-81
2024/01/21 10:08:35;;;;;;;59.28;55.30;;;2.20;99.90;;;;;;4974071;28;20062;-80
2024/01/21 10:11:02;;;;;;;59.67;55.55;;;2.30;99.90;;;;;;4992226;28;20034;-82
2024/01/21 10:13:30;;;;;;;89.68;83.28;;;2.30;99.90;;;;;;4971503;28;20464;-81
2024/01/21 10:15:57;;;;;;;78.68;72.70;;;2.30;99.90;;;;;;5004940;28;20100;-81
2024/01/21 10:18:25;;;;;;;49.20;45.78;;;3.10;99.90;;;;;;4972252;28;20055;-82
2024/01/21 10:20:51;;;;;;;86.57;80.95;;;2.40;99.90;;;;;;4966650;28;20470;-81
2024/01/21 10:23:17;;;;;;;111.32;103.65;;;2.40;99.90;;;;;;5000648;28;20038;-81
2024/01/21 10:25:44;;;;;;;69.15;64.38;;;2.40;99.90;;;;;;4989872;28;20038;-81
2024/01/21 10:28:12;;;;;;;71.78;67.00;;;2.50;99.90;;;;;;4974703;28;20043;-82
2024/01/21 10:30:38;;;;;;;94.55;88.70;;;2.60;99.90;;;;;;4993213;28;20049;-80
2024/01/21 10:33:06;;;;;;;88.00;82.22;;;2.80;99.90;;;;;;4968269;28;20055;-80
2024/01/21 10:35:32;;;;;;;86.85;80.93;;;2.90;99.90;;;;;;4968322;28;20050;-80
2024/01/21 10:37:58;;;;;;;111.50;103.88;;;3.00;99.90;;;;;;4976856;28;20054;-80
2024/01/21 10:40:24;;;;;;;86.60;80.97;;;3.60;99.90;;;;;;4986123;28;20047;-79
2024/01/21 10:42:55;;;;;;;102.10;95.35;;;3.10;99.90;;;;;;4986790;28;20053;-78
2024/01/21 10:45:22;;;;;;;112.15;104.88;;;3.10;99.90;;;;;;5001812;28;20478;-78
2024/01/21 10:47:49;;;;;;;82.18;77.00;;;3.10;99.90;;;;;;4971317;28;20049;-78
2024/01/21 10:50:19;;;;;;;104.80;98.18;;;3.60;99.90;;;;;;4953057;28;20051;-80
2024/01/21 10:52:47;;;;;;;103.72;96.75;;;3.00;99.90;;;;;;4975741;28;20046;-79
2024/01/21 10:55:13;;;;;;;184.27;170.57;;;3.00;99.90;;;;;;4974860;28;20413;-79
2024/01/21 10:57:39;;;;;;;122.22;114.40;;;3.00;99.90;;;;;;5006408;28;20051;-79
2024/01/21 11:00:06;;;;;;;100.68;94.32;;;3.00;99.90;;;;;;4990739;28;20111;-79
2024/01/21 11:02:32;;;;;;;95.72;89.38;;;3.10;99.90;;;;;;4988566;28;20178;-80
2024/01/21 11:04:59;;;;;;;168.95;158.13;;;3.10;99.90;;;;;;4984048;28;20226;-79
2024/01/21 11:07:25;;;;;;;202.75;188.52;;;3.10;99.90;;;;;;4994766;28;20041;-79
2024/01/21 11:09:54;;;;;;;145.75;135.93;;;3.20;99.90;;;;;;5013332;28;20043;-79
2024/01/21 11:12:21;;;;;;;109.93;102.53;;;3.20;99.90;;;;;;4985540;28;20053;-78
2024/01/21 11:14:47;;;;;;;119.38;112.07;;;3.20;99.90;;;;;;4976033;28;20573;-79
2024/01/21 11:17:17;;;;;;;116.20;108.85;;;3.80;99.90;;;;;;4998063;28;20085;-79
2024/01/21 11:19:49;;;;;;;100.47;94.07;;;3.20;99.90;;;;;;4976737;28;20466;-79
2024/01/21 11:22:17;;;;;;;105.63;98.63;;;3.20;99.90;;;;;;4969773;28;20421;-79
2024/01/21 11:24:45;;;;;;;146.93;137.35;;;3.30;99.90;;;;;;4999523;28;20047;-80
2024/01/21 11:27:25;;;;;;;198.52;186.23;;;3.30;99.90;;;;;;5004569;28;20059;-81
2024/01/21 11:29:55;;;;;;;109.10;102.47;;;3.40;99.90;;;;;;4984076;28;20093;-79
2024/01/21 11:32:25;;;;;;;144.02;135.05;;;3.40;99.90;;;;;;4984943;28;20537;-80
2024/01/21 11:34:52;;;;;;;171.75;160.45;;;3.40;99.90;;;;;;4985683;28;20054;-79
2024/01/21 11:37:18;;;;;;;107.28;100.50;;;3.50;99.90;;;;;;4984874;28;20485;-79
2024/01/21 11:39:45;;;;;;;196.30;183.35;;;3.40;99.90;;;;;;4974335;28;20042;-79
2024/01/21 11:42:11;;;;;;;122.60;114.97;;;3.50;99.90;;;;;;4977296;28;20091;-79
2024/01/21 11:44:38;;;;;;;129.07;120.82;;;3.50;99.90;;;;;;4993295;28;20050;-80
2024/01/21 11:47:05;;;;;;;195.18;182.57;;;3.50;99.90;;;;;;4962587;28;20495;-80
2024/01/21 11:49:32;;;;;;;1999.90;970.22;;;3.50;99.90;;;;;;4978113;28;20122;-80
2024/01/21 11:52:00;;;;;;;353.13;264.67;;;3.50;99.90;;;;;;5004261;28;20050;-80
2024/01/21 11:54:26;;;;;;;227.57;213.25;;;3.50;99.90;;;;;;4979031;28;20133;-80
2024/01/21 11:56:53;;;;;;;178.32;167.07;;;3.50;99.90;;;;;;5000808;28;20049;-80
2024/01/21 11:59:19;;;;;;;296.85;277.23;;;4.00;99.90;;;;;;4980740;28;20043;-80
2024/01/21 12:01:45;;;;;;;206.18;193.38;;;3.50;99.90;;;;;;4986339;28;20039;-80
2024/01/21 12:04:11;;;;;;;265.92;248.60;;;3.50;99.90;;;;;;4998602;28;20353;-80
2024/01/21 12:06:41;;;;;;;235.77;220.25;;;3.50;99.90;;;;;;4983967;28;20092;-81
2024/01/21 12:09:07;;;;;;;267.13;250.75;;;3.50;99.90;;;;;;4990913;28;20405;-79
2024/01/21 12:11:35;;;;;;;288.73;270.58;;;3.50;99.90;;;;;;5002367;28;20481;-83
2024/01/21 12:14:01;;;;;;;320.45;299.42;;;3.50;99.90;;;;;;4984862;28;20041;-82
2024/01/21 12:16:27;;;;;;;354.95;331.17;;;3.50;99.90;;;;;;5001886;28;20041;-80
2024/01/21 12:18:54;;;;;;;346.83;323.23;;;3.50;99.90;;;;;;4984459;28;20111;-80
2024/01/21 12:21:23;;;;;;;237.15;222.55;;;3.50;99.90;;;;;;5003955;28;20113;-80
2024/01/21 12:23:51;;;;;;;305.27;284.92;;;3.50;99.90;;;;;;4985051;28;20054;-79
2024/01/21 12:26:19;;;;;;;369.17;342.83;;;3.60;99.90;;;;;;4985929;28;20086;-80
2024/01/21 12:28:56;;;;;;;254.57;239.18;;;3.50;99.90;;;;;;4988318;28;20057;-79